Terminal Aerodrome Forecast
Issued by NWS Boise, ID

Home | Current Version | Previous Version | Text Only | Print | Product List | Glossary On
Versions: 1 2 3 4 5 6 7 8 9 10 11 12 13 14 15 16 17 18 19 20 21 22 23 24
000
FTUS45 KBOI 212328
TAFBOI
TAF
KBOI 212328Z 2200/2224 14007KT P6SM VCSH SCT090 OVC110
      TEMPO 2200/2204 15010G20KT
     FM221200 14005KT P6SM BKN100
     FM221900 26005KT P6SM BKN120=

USA.gov is the U.S. government's official web portal to all federal, state and local government web resources and services.